Time;durP1;ratioP1;P1;durP2;ratioP2;P2;SDS_P1;SDS_P2;PMS_P1;PMS_P2;Temp;Humidity;BMP_temperature;BMP_pressure;BME280_temperature;BME280_humidity;BME280_pressure;Samples;Min_cycle;Max_cycle;Signal;HPM_P1;HPM_P2
2022/09/24 00:00:52;;;;;;;20.13;13.57;;;20.20;1.00;;;;;;5091311;28;20481;-63
2022/09/24 00:03:19;;;;;;;17.17;12.90;;;20.30;1.00;;;;;;5091526;28;20394;-63
2022/09/24 00:05:46;;;;;;;22.27;13.38;;;20.30;1.00;;;;;;5091853;28;20044;-62
2022/09/24 00:08:13;;;;;;;20.38;12.13;;;20.30;1.00;;;;;;5081344;28;20474;-63
2022/09/24 00:10:40;;;;;;;16.77;13.00;;;20.30;1.00;;;;;;5090990;28;20032;-63
2022/09/24 00:13:07;;;;;;;18.25;12.98;;;20.20;1.00;;;;;;5084691;28;20431;-63
2022/09/24 00:15:41;;;;;;;20.35;12.38;;;20.30;1.00;;;;;;5080182;28;20454;-63
2022/09/24 00:18:06;;;;;;;15.60;11.35;;;20.30;1.00;;;;;;5087587;28;20036;-63
2022/09/24 00:20:33;;;;;;;18.90;12.65;;;20.30;1.00;;;;;;5081197;28;20054;-63
2022/09/24 00:23:00;;;;;;;18.83;13.07;;;20.30;1.00;;;;;;5092366;28;20024;-63
2022/09/24 00:28:12;;;;;;;16.60;12.75;;;20.20;1.00;;;;;;5092830;28;20027;-63
2022/09/24 00:30:39;;;;;;;20.75;15.18;;;20.30;1.00;;;;;;5080905;28;20451;-63
2022/09/24 00:33:05;;;;;;;21.58;14.60;;;20.20;1.00;;;;;;5088029;28;20031;-63
2022/09/24 00:35:35;;;;;;;24.60;17.58;;;20.20;1.00;;;;;;5091172;28;20099;-63
2022/09/24 00:38:01;;;;;;;21.92;15.60;;;20.10;1.00;;;;;;5086049;28;20028;-63
2022/09/24 00:40:32;;;;;;;22.30;14.95;;;20.20;1.00;;;;;;5084015;28;20027;-63
2022/09/24 00:42:58;;;;;;;19.77;13.88;;;20.20;1.00;;;;;;5092241;28;20081;-63
2022/09/24 00:45:26;;;;;;;16.65;13.55;;;20.10;1.00;;;;;;5083938;28;20116;-63
2022/09/24 00:47:53;;;;;;;23.05;15.07;;;20.10;1.00;;;;;;5091505;28;20020;-63
2022/09/24 00:50:22;;;;;;;22.58;15.07;;;20.00;1.00;;;;;;5089985;28;20074;-63
2022/09/24 00:52:56;;;;;;;21.95;13.95;;;20.00;1.00;;;;;;5092133;28;20093;-63
2022/09/24 00:55:23;;;;;;;23.05;14.20;;;20.10;1.00;;;;;;5085999;28;20046;-63
2022/09/24 00:57:51;;;;;;;19.15;14.43;;;20.20;1.00;;;;;;5092033;28;20089;-62
2022/09/24 01:00:18;;;;;;;18.30;13.88;;;20.10;1.00;;;;;;5091055;28;20062;-63
2022/09/24 01:02:46;;;;;;;21.02;14.32;;;20.10;1.00;;;;;;5088878;28;20362;-63
2022/09/24 01:05:12;;;;;;;20.50;14.90;;;20.10;1.00;;;;;;5078356;28;20039;-62
2022/09/24 01:07:38;;;;;;;18.55;14.38;;;20.00;1.00;;;;;;5080298;28;20028;-63
2022/09/24 01:10:04;;;;;;;20.48;13.98;;;20.10;1.00;;;;;;5073367;28;20047;-63
2022/09/24 01:12:48;;;;;;;20.35;15.07;;;20.10;1.00;;;;;;5088423;28;20020;-63
2022/09/24 01:15:19;;;;;;;20.08;14.20;;;20.10;1.00;;;;;;5089762;28;20067;-63
2022/09/24 01:18:06;;;;;;;18.48;14.50;;;20.10;1.00;;;;;;5084246;28;20025;-63
2022/09/24 01:21:02;;;;;;;22.52;15.90;;;20.10;1.00;;;;;;5087097;28;20040;-63
2022/09/24 01:24:07;;;;;;;18.65;14.23;;;20.10;1.00;;;;;;5078775;28;20024;-63
2022/09/24 01:27:01;;;;;;;19.90;14.55;;;20.00;1.00;;;;;;5070517;28;20052;-63
2022/09/24 01:29:27;;;;;;;26.60;14.20;;;20.00;1.00;;;;;;5090160;28;20454;-63
2022/09/24 01:32:08;;;;;;;18.40;14.68;;;20.10;1.00;;;;;;5091607;28;20078;-63
2022/09/24 01:34:44;;;;;;;22.23;14.98;;;20.10;1.00;;;;;;5089100;28;20373;-63
2022/09/24 01:37:13;;;;;;;20.40;14.48;;;20.00;1.00;;;;;;5091158;28;20334;-63
2022/09/24 01:39:40;;;;;;;22.27;15.55;;;20.10;1.00;;;;;;5089552;28;20073;-63
2022/09/24 01:42:09;;;;;;;20.48;14.80;;;20.00;1.00;;;;;;5073762;28;20035;-63
2022/09/24 01:44:37;;;;;;;17.33;14.38;;;20.10;1.00;;;;;;5085982;28;20052;-63
2022/09/24 01:47:05;;;;;;;19.85;15.63;;;20.10;1.00;;;;;;5090129;28;20032;-63
2022/09/24 01:49:31;;;;;;;22.50;15.50;;;20.00;1.00;;;;;;5089354;28;20021;-63
2022/09/24 01:52:02;;;;;;;22.00;15.88;;;20.10;1.00;;;;;;5091627;28;20024;-63
2022/09/24 01:54:35;;;;;;;22.35;14.95;;;19.90;1.00;;;;;;5089251;28;20027;-63
2022/09/24 01:57:15;;;;;;;18.38;14.10;;;19.90;1.00;;;;;;5090880;28;20424;-63
2022/09/24 02:00:08;;;;;;;21.08;14.27;;;19.80;1.00;;;;;;5086248;28;20024;-63
2022/09/24 02:03:07;;;;;;;25.20;15.35;;;19.90;1.00;;;;;;5080481;28;20037;-63
2022/09/24 02:05:50;;;;;;;19.73;15.32;;;19.90;1.00;;;;;;5091207;28;20490;-63
2022/09/24 02:08:22;;;;;;;25.40;15.85;;;19.90;1.00;;;;;;5085546;28;20024;-63
2022/09/24 02:10:54;;;;;;;18.80;14.35;;;19.90;1.00;;;;;;5091207;28;20531;-63
2022/09/24 02:13:24;;;;;;;19.92;14.75;;;19.80;1.00;;;;;;5090291;28;20024;-63
2022/09/24 02:15:54;;;;;;;18.05;14.77;;;19.80;1.00;;;;;;5091248;28;20440;-63
2022/09/24 02:18:25;;;;;;;21.20;15.55;;;19.70;1.00;;;;;;5083099;28;20024;-63
2022/09/24 02:20:52;;;;;;;20.23;13.77;;;19.80;1.00;;;;;;5079707;28;20063;-63
2022/09/24 02:23:19;;;;;;;16.77;13.35;;;19.70;1.00;;;;;;5091421;28;20073;-63
2022/09/24 02:26:11;;;;;;;17.17;13.18;;;19.80;1.00;;;;;;5087387;28;20079;-63
2022/09/24 02:28:37;;;;;;;18.48;13.98;;;19.80;1.00;;;;;;5079377;28;20062;-63
2022/09/24 02:31:16;;;;;;;20.90;13.75;;;19.80;1.00;;;;;;5094554;28;20447;-63
2022/09/24 02:36:31;;;;;;;16.98;12.82;;;19.80;1.00;;;;;;5093931;28;20105;-63
2022/09/24 02:38:58;;;;;;;16.42;12.82;;;19.80;1.00;;;;;;5093562;28;20028;-63
2022/09/24 02:41:24;;;;;;;18.45;13.75;;;19.80;1.00;;;;;;5080583;28;20087;-63
2022/09/24 02:43:51;;;;;;;19.27;13.43;;;19.90;1.00;;;;;;5092700;28;20457;-64
2022/09/24 02:46:17;;;;;;;18.30;12.75;;;19.90;1.00;;;;;;5094376;28;20131;-63
2022/09/24 02:48:42;;;;;;;13.52;11.60;;;19.80;1.00;;;;;;5093425;28;20108;-63
2022/09/24 02:51:08;;;;;;;14.98;11.77;;;19.80;1.00;;;;;;5094047;28;20016;-63
2022/09/24 02:53:34;;;;;;;16.58;12.40;;;19.80;1.00;;;;;;5093016;28;20120;-63
2022/09/24 02:56:00;;;;;;;17.75;12.77;;;19.70;1.00;;;;;;5094472;28;20021;-63
2022/09/24 02:58:26;;;;;;;20.55;11.82;;;19.80;1.00;;;;;;5092771;28;20118;-63
2022/09/24 03:00:53;;;;;;;15.85;11.98;;;19.80;1.00;;;;;;5094116;28;20035;-63
2022/09/24 03:03:20;;;;;;;15.50;11.63;;;19.80;1.00;;;;;;5092907;28;20101;-63
2022/09/24 03:05:46;;;;;;;16.80;12.13;;;19.70;1.00;;;;;;5093993;28;20115;-63
2022/09/24 03:08:11;;;;;;;18.13;12.73;;;19.70;1.00;;;;;;5081025;28;20039;-63
2022/09/24 03:10:38;;;;;;;17.33;11.90;;;19.50;1.00;;;;;;5094138;28;20024;-63
2022/09/24 03:13:03;;;;;;;17.52;11.30;;;19.60;1.00;;;;;;5089653;28;20020;-62
2022/09/24 03:15:29;;;;;;;19.50;12.35;;;19.60;1.00;;;;;;5094013;28;20108;-63
2022/09/24 03:17:55;;;;;;;17.48;12.20;;;19.60;1.00;;;;;;5092661;28;20024;-63
2022/09/24 03:20:20;;;;;;;15.30;11.57;;;19.60;1.00;;;;;;5094065;28;20051;-62
2022/09/24 03:22:50;;;;;;;17.45;11.43;;;19.50;1.00;;;;;;5088494;28;20105;-63
2022/09/24 03:25:16;;;;;;;16.83;11.20;;;19.60;1.00;;;;;;5092068;28;20127;-62
2022/09/24 03:27:42;;;;;;;15.68;12.13;;;19.60;1.00;;;;;;5087833;28;20082;-62
2022/09/24 03:32:52;;;;;;;;;;;19.50;1.00;;;;;;5086818;28;20482;-63
2022/09/24 03:35:41;;;;;;;16.30;11.82;;;19.40;1.00;;;;;;5084319;28;19908;-62
2022/09/24 03:38:07;;;;;;;18.35;11.13;;;19.40;1.00;;;;;;5074069;28;20503;-63
2022/09/24 03:40:32;;;;;;;18.63;11.80;;;19.40;1.00;;;;;;5085288;28;20115;-62
2022/09/24 03:42:58;;;;;;;15.60;10.60;;;19.50;1.00;;;;;;5083209;28;20508;-63
2022/09/24 03:45:24;;;;;;;15.43;11.00;;;19.40;1.00;;;;;;5086931;28;20040;-63
2022/09/24 03:47:50;;;;;;;16.08;11.30;;;19.40;1.00;;;;;;5090498;28;20020;-63
2022/09/24 03:50:16;;;;;;;14.85;11.18;;;19.40;1.00;;;;;;5088559;28;20039;-63
2022/09/24 03:52:41;;;;;;;14.10;10.00;;;19.50;1.00;;;;;;5080942;28;20138;-63
2022/09/24 03:55:07;;;;;;;13.48;10.40;;;19.50;1.00;;;;;;5087314;28;20028;-63
2022/09/24 03:57:33;;;;;;;16.92;10.98;;;19.50;1.00;;;;;;5093053;28;20062;-63
2022/09/24 03:59:58;;;;;;;14.52;11.50;;;19.50;1.00;;;;;;5092005;28;20067;-63
2022/09/24 04:02:24;;;;;;;16.00;11.50;;;19.30;1.00;;;;;;5092856;28;20028;-63
2022/09/24 04:04:51;;;;;;;15.82;12.25;;;19.40;1.00;;;;;;5090756;28;20051;-63
2022/09/24 04:07:16;;;;;;;15.27;10.52;;;19.30;1.00;;;;;;5083525;28;20112;-63
2022/09/24 04:09:42;;;;;;;15.45;11.00;;;19.40;1.00;;;;;;5086586;28;20119;-63
2022/09/24 04:12:08;;;;;;;12.20;10.98;;;19.30;1.00;;;;;;5091759;28;20031;-63
2022/09/24 04:14:33;;;;;;;13.40;11.57;;;19.40;1.00;;;;;;5085838;28;20028;-63
2022/09/24 04:16:59;;;;;;;12.05;9.77;;;19.20;1.00;;;;;;5080807;28;20434;-63
2022/09/24 04:19:25;;;;;;;12.35;10.10;;;19.40;1.00;;;;;;5085007;28;20036;-63
2022/09/24 04:21:51;;;;;;;14.25;10.38;;;19.30;1.00;;;;;;5092043;28;20525;-63
2022/09/24 04:24:17;;;;;;;12.40;10.02;;;19.20;1.00;;;;;;5090173;28;20032;-63
2022/09/24 04:26:42;;;;;;;11.88;10.38;;;19.10;1.00;;;;;;5077733;28;20047;-63
2022/09/24 04:29:08;;;;;;;14.80;10.45;;;19.20;1.00;;;;;;5091437;28;20031;-63
2022/09/24 04:31:34;;;;;;;12.60;9.73;;;19.20;1.00;;;;;;5092515;28;20504;-63
2022/09/24 04:34:00;;;;;;;13.55;9.80;;;19.20;1.00;;;;;;5090956;28;20028;-63
2022/09/24 04:36:26;;;;;;;11.73;10.52;;;19.10;1.00;;;;;;5092027;28;20027;-63
2022/09/24 04:38:51;;;;;;;14.02;10.57;;;19.10;1.00;;;;;;5091337;28;20036;-63
2022/09/24 04:41:17;;;;;;;13.55;10.15;;;19.10;1.00;;;;;;5092236;28;20028;-63
2022/09/24 04:43:45;;;;;;;12.02;10.50;;;19.10;1.00;;;;;;5082201;28;20047;-63
2022/09/24 04:46:12;;;;;;;12.25;9.43;;;19.10;1.00;;;;;;5092050;28;20036;-63
2022/09/24 04:48:38;;;;;;;14.52;9.38;;;19.20;1.00;;;;;;5078116;28;20030;-63
2022/09/24 04:51:13;;;;;;;13.45;10.07;;;19.10;1.00;;;;;;5081730;28;20154;-63
2022/09/24 04:53:38;;;;;;;11.20;9.95;;;18.90;1.00;;;;;;5085686;28;20094;-63
2022/09/24 04:56:10;;;;;;;11.20;10.10;;;19.00;1.00;;;;;;5091134;28;20127;-64
2022/09/24 04:58:37;;;;;;;15.52;10.30;;;19.10;1.00;;;;;;5090092;28;20385;-64
2022/09/24 05:01:02;;;;;;;12.55;10.38;;;18.90;1.00;;;;;;5092035;28;20054;-64
2022/09/24 05:03:28;;;;;;;11.02;9.68;;;19.00;1.00;;;;;;5090785;28;20474;-64
2022/09/24 05:12:39;;;;;;;11.20;9.95;;;19.10;1.00;;;;;;5079428;28;20159;-64
2022/09/24 05:15:06;;;;;;;10.52;9.43;;;19.00;1.00;;;;;;5087426;28;20024;-64
2022/09/24 05:17:31;;;;;;;14.45;9.57;;;18.90;1.00;;;;;;5079276;28;20111;-64
2022/09/24 05:19:58;;;;;;;11.50;9.15;;;18.90;1.00;;;;;;5088877;28;20142;-64
2022/09/24 05:22:27;;;;;;;11.45;9.40;;;18.90;1.00;;;;;;5090647;28;20325;-64
2022/09/24 05:24:53;;;;;;;10.32;9.27;;;18.90;1.00;;;;;;5088718;28;20032;-64
2022/09/24 05:27:20;;;;;;;10.57;9.02;;;18.90;1.00;;;;;;5080805;28;20028;-64
2022/09/24 05:29:46;;;;;;;10.30;8.68;;;18.90;1.00;;;;;;5089056;28;20350;-64
2022/09/24 05:32:14;;;;;;;12.18;9.45;;;18.90;1.00;;;;;;5091781;28;20028;-64
2022/09/24 05:34:41;;;;;;;11.02;9.45;;;18.90;1.00;;;;;;5089732;28;20149;-64
2022/09/24 05:37:07;;;;;;;11.65;8.50;;;18.90;1.00;;;;;;5091440;28;20432;-66
2022/09/24 05:39:33;;;;;;;13.25;9.45;;;19.00;1.00;;;;;;5091164;28;20032;-65
2022/09/24 05:41:58;;;;;;;9.65;8.65;;;19.00;1.00;;;;;;5090563;28;20111;-64
2022/09/24 05:44:24;;;;;;;11.90;9.63;;;19.10;1.00;;;;;;5084283;28;20466;-64
2022/09/24 05:46:51;;;;;;;11.50;9.43;;;19.10;1.00;;;;;;5088020;28;20494;-64
2022/09/24 05:49:17;;;;;;;11.65;9.13;;;18.90;1.00;;;;;;5091305;28;20031;-64
2022/09/24 05:51:42;;;;;;;11.20;9.82;;;18.90;1.00;;;;;;5088023;28;20036;-64
2022/09/24 05:54:10;;;;;;;11.32;9.25;;;18.80;1.00;;;;;;5077307;28;20031;-64
2022/09/24 05:56:36;;;;;;;15.50;8.88;;;19.00;1.00;;;;;;5087583;28;20035;-64
2022/09/24 05:59:02;;;;;;;9.30;8.40;;;19.00;1.00;;;;;;5094271;28;20024;-64
2022/09/24 06:01:30;;;;;;;14.82;9.45;;;19.00;1.00;;;;;;5094432;28;20028;-64
2022/09/24 06:03:57;;;;;;;10.73;9.27;;;19.10;1.00;;;;;;5095161;28;20043;-64
2022/09/24 06:06:24;;;;;;;10.13;8.43;;;19.00;1.00;;;;;;5094153;28;20402;-64
2022/09/24 06:08:50;;;;;;;10.05;8.60;;;18.90;1.00;;;;;;5094050;28;20093;-64
2022/09/24 06:11:15;;;;;;;11.00;8.63;;;19.10;1.00;;;;;;5094223;28;20469;-64
2022/09/24 06:13:41;;;;;;;8.60;7.78;;;19.00;1.00;;;;;;5095191;28;20390;-64
2022/09/24 06:16:08;;;;;;;9.73;8.10;;;19.00;1.00;;;;;;5090026;28;20028;-64
2022/09/24 06:18:38;;;;;;;9.88;8.00;;;18.90;1.00;;;;;;5081698;28;20012;-64
2022/09/24 06:21:16;;;;;;;9.10;8.20;;;19.00;1.00;;;;;;5094706;28;20355;-64
2022/09/24 06:23:44;;;;;;;11.65;7.95;;;19.00;1.00;;;;;;5094588;28;20151;-64
2022/09/24 06:26:11;;;;;;;9.13;8.27;;;19.00;1.00;;;;;;5094878;28;20032;-64
2022/09/24 06:28:38;;;;;;;9.25;8.07;;;18.90;1.00;;;;;;5094917;28;20089;-64
2022/09/24 06:31:04;;;;;;;9.75;7.88;;;18.90;1.00;;;;;;5094942;28;20477;-64
2022/09/24 06:33:30;;;;;;;10.07;8.35;;;18.90;1.00;;;;;;5094416;28;20027;-64
2022/09/24 06:35:59;;;;;;;11.32;8.25;;;18.90;1.00;;;;;;5094204;28;20085;-64
2022/09/24 06:38:25;;;;;;;10.73;9.30;;;18.90;1.00;;;;;;5094656;28;20075;-64
2022/09/24 06:40:50;;;;;;;11.60;9.52;;;19.00;1.00;;;;;;5094738;28;20024;-64
2022/09/24 06:43:17;;;;;;;11.02;8.73;;;19.00;1.00;;;;;;5092836;28;20024;-64
2022/09/24 06:45:42;;;;;;;10.82;9.73;;;19.00;1.00;;;;;;5094581;28;20032;-64
2022/09/24 06:48:11;;;;;;;10.65;8.45;;;19.00;1.00;;;;;;5081360;28;20420;-64
2022/09/24 06:50:40;;;;;;;10.45;9.30;;;19.00;1.00;;;;;;5093139;28;20028;-64
2022/09/24 06:53:09;;;;;;;13.48;9.50;;;19.00;1.00;;;;;;5082740;28;20119;-64
2022/09/24 06:55:35;;;;;;;10.32;8.88;;;19.00;1.00;;;;;;5092064;28;20099;-64
2022/09/24 06:58:06;;;;;;;14.93;9.02;;;18.90;1.00;;;;;;5094277;28;20020;-64
2022/09/24 07:00:33;;;;;;;10.43;9.32;;;19.00;1.00;;;;;;5094310;28;20512;-64
2022/09/24 07:02:58;;;;;;;11.38;9.55;;;19.00;1.00;;;;;;5094230;28;20032;-64
2022/09/24 07:05:24;;;;;;;10.85;8.63;;;19.00;1.00;;;;;;5093930;28;20102;-64
2022/09/24 07:07:50;;;;;;;9.77;8.80;;;19.00;1.00;;;;;;5093658;28;20028;-64
2022/09/24 07:10:16;;;;;;;9.18;8.15;;;19.00;1.00;;;;;;5093751;28;20047;-64
2022/09/24 07:12:42;;;;;;;12.10;7.72;;;19.00;1.00;;;;;;5093958;28;20031;-64
2022/09/24 07:15:09;;;;;;;11.43;8.80;;;19.10;1.00;;;;;;5093875;28;20077;-64
2022/09/24 07:17:34;;;;;;;9.40;8.18;;;19.10;1.00;;;;;;5090292;28;20032;-64
2022/09/24 07:20:01;;;;;;;9.60;8.57;;;19.10;1.00;;;;;;5083745;28;20120;-64
2022/09/24 07:22:27;;;;;;;9.27;8.32;;;19.10;1.00;;;;;;5076429;28;20032;-64
2022/09/24 07:24:52;;;;;;;10.02;8.70;;;19.00;1.00;;;;;;5092853;28;20398;-64
2022/09/24 07:27:20;;;;;;;10.75;8.95;;;19.00;1.00;;;;;;5092147;28;20115;-63
2022/09/24 07:29:46;;;;;;;11.70;10.25;;;19.00;1.00;;;;;;5093310;28;20479;-64
2022/09/24 07:32:14;;;;;;;13.18;9.85;;;19.00;1.00;;;;;;5093695;28;20051;-63
2022/09/24 07:34:40;;;;;;;14.52;10.82;;;18.80;1.00;;;;;;5091995;28;20512;-63
2022/09/24 07:37:05;;;;;;;13.40;10.85;;;18.70;1.00;;;;;;5080581;28;20114;-63
2022/09/24 07:39:32;;;;;;;12.70;11.35;;;18.70;1.00;;;;;;5083922;28;20304;-63
2022/09/24 07:42:01;;;;;;;18.13;11.60;;;18.40;1.00;;;;;;5092924;28;20527;-63
2022/09/24 07:44:28;;;;;;;13.55;10.68;;;18.30;1.00;;;;;;5092465;28;20090;-63
2022/09/24 07:46:54;;;;;;;13.35;11.63;;;18.30;1.00;;;;;;5092019;28;20028;-63
2022/09/24 07:49:20;;;;;;;12.35;10.63;;;18.30;1.00;;;;;;5091311;28;20024;-63
2022/09/24 07:51:46;;;;;;;12.15;10.77;;;18.30;1.00;;;;;;5090893;28;20028;-64
2022/09/24 07:54:12;;;;;;;12.45;10.70;;;18.30;1.00;;;;;;5091748;28;20043;-63
2022/09/24 07:56:37;;;;;;;11.57;10.38;;;18.10;1.00;;;;;;5090814;28;20485;-64
2022/09/24 07:59:06;;;;;;;10.35;9.45;;;18.20;1.00;;;;;;5092856;28;20459;-63
2022/09/24 08:01:33;;;;;;;10.00;8.63;;;18.30;1.00;;;;;;5088104;28;20492;-64
2022/09/24 08:03:59;;;;;;;10.48;9.48;;;18.30;1.00;;;;;;5089416;28;20055;-63
2022/09/24 08:06:25;;;;;;;11.57;10.05;;;18.30;1.00;;;;;;5083746;28;20442;-64
2022/09/24 08:08:55;;;;;;;12.48;9.55;;;18.40;1.00;;;;;;5092664;28;20039;-63
2022/09/24 08:11:21;;;;;;;8.93;8.00;;;18.40;1.00;;;;;;5078590;28;20032;-63
2022/09/24 08:13:59;;;;;;;10.05;8.98;;;18.40;1.00;;;;;;5092570;28;20028;-63
2022/09/24 08:16:25;;;;;;;12.75;9.40;;;18.40;1.00;;;;;;5086226;28;20122;-64
2022/09/24 08:18:52;;;;;;;9.57;8.57;;;18.50;1.00;;;;;;5085746;28;20110;-65
2022/09/24 08:21:17;;;;;;;9.20;8.40;;;18.40;1.00;;;;;;5089591;28;20040;-66
2022/09/24 08:23:43;;;;;;;15.32;11.00;;;18.40;1.00;;;;;;5092582;28;20035;-67
2022/09/24 08:26:11;;;;;;;12.27;9.30;;;18.40;1.00;;;;;;5091647;28;20513;-66
2022/09/24 08:28:40;;;;;;;9.55;7.90;;;18.40;1.00;;;;;;5092459;28;20449;-66
2022/09/24 08:31:07;;;;;;;9.63;8.73;;;18.40;1.00;;;;;;5091249;28;20111;-66
2022/09/24 08:33:34;;;;;;;13.80;9.20;;;18.40;1.00;;;;;;5085491;28;20386;-65
2022/09/24 08:36:01;;;;;;;18.20;10.55;;;18.30;1.00;;;;;;5078061;28;20095;-63
2022/09/24 08:38:27;;;;;;;12.18;9.27;;;18.20;1.00;;;;;;5077930;28;20020;-64
2022/09/24 08:41:16;;;;;;;15.38;10.98;;;18.10;1.00;;;;;;5089754;28;20506;-64
2022/09/24 08:47:47;;;;;;;14.70;10.55;;;17.70;1.00;;;;;;5069635;28;20070;-63
2022/09/24 08:50:20;;;;;;;11.55;10.15;;;17.60;1.00;;;;;;5089314;28;20111;-63
2022/09/24 08:53:23;;;;;;;11.02;9.55;;;17.60;1.00;;;;;;5080272;28;20035;-63
2022/09/24 08:55:54;;;;;;;10.25;9.00;;;17.60;1.00;;;;;;5083726;28;20020;-63
2022/09/24 08:58:49;;;;;;;11.18;9.88;;;17.60;1.00;;;;;;5091886;28;20024;-63
2022/09/24 09:01:27;;;;;;;;;;;17.70;1.00;;;;;;5090940;28;20032;-63
2022/09/24 09:04:12;;;;;;;11.30;10.20;;;17.60;1.00;;;;;;5090446;28;20373;-64
2022/09/24 09:07:02;;;;;;;12.63;10.60;;;17.70;1.00;;;;;;5091017;28;20048;-64
2022/09/24 09:09:46;;;;;;;15.32;11.57;;;17.70;1.00;;;;;;5080187;28;20024;-64
2022/09/24 09:12:20;;;;;;;14.10;11.57;;;17.70;1.00;;;;;;5089234;28;20385;-64
2022/09/24 09:15:11;;;;;;;12.43;11.27;;;17.50;1.00;;;;;;5082422;28;20035;-64
2022/09/24 09:17:48;;;;;;;14.02;12.15;;;17.60;1.00;;;;;;5083493;28;20078;-64
2022/09/24 09:20:21;;;;;;;15.10;11.68;;;17.60;1.00;;;;;;5090557;28;20427;-64
2022/09/24 09:22:49;;;;;;;16.02;13.57;;;17.80;1.00;;;;;;5091758;28;20081;-64
2022/09/24 09:25:22;;;;;;;16.48;13.05;;;17.90;1.00;;;;;;5079622;28;20040;-65
2022/09/24 09:27:55;;;;;;;13.63;11.68;;;17.80;1.00;;;;;;5089693;28;20016;-64
2022/09/24 09:30:22;;;;;;;13.30;11.68;;;17.80;1.00;;;;;;5090279;28;20028;-64
2022/09/24 09:32:50;;;;;;;18.33;12.45;;;17.70;1.00;;;;;;5091361;28;20024;-64
2022/09/24 09:35:27;;;;;;;14.95;12.25;;;17.70;1.00;;;;;;5093133;28;20024;-65
2022/09/24 09:44:42;;;;;;;14.25;11.80;;;17.60;1.00;;;;;;5082973;28;20085;-64
2022/09/24 09:47:45;;;;;;;11.48;10.18;;;17.60;1.00;;;;;;5094888;28;20089;-64
2022/09/24 09:50:19;;;;;;;14.73;10.55;;;17.40;1.00;;;;;;5092392;28;20062;-64
2022/09/24 09:52:46;;;;;;;10.30;9.30;;;17.40;1.00;;;;;;5079878;28;20017;-64
2022/09/24 09:55:33;;;;;;;11.30;10.20;;;17.40;1.00;;;;;;5091673;28;20035;-64
2022/09/24 09:58:14;;;;;;;12.50;10.88;;;17.50;1.00;;;;;;5082870;28;20497;-64
2022/09/24 10:00:41;;;;;;;12.50;9.65;;;17.70;1.00;;;;;;5076807;28;20324;-64
2022/09/24 10:03:24;;;;;;;13.55;9.88;;;17.70;1.00;;;;;;5087834;28;20089;-65
2022/09/24 10:05:55;;;;;;;10.85;9.32;;;17.80;1.00;;;;;;5095075;28;20083;-65
2022/09/24 10:08:22;;;;;;;13.52;11.02;;;17.60;1.00;;;;;;5093908;28;20032;-64
2022/09/24 10:10:56;;;;;;;13.70;11.10;;;17.60;1.00;;;;;;5095371;28;20074;-65
2022/09/24 10:13:22;;;;;;;14.98;12.30;;;17.70;1.00;;;;;;5094371;28;20147;-64
2022/09/24 10:15:54;;;;;;;14.07;12.18;;;17.80;1.00;;;;;;5080637;28;20062;-65
2022/09/24 10:18:45;;;;;;;15.93;13.70;;;17.80;1.00;;;;;;5088678;28;20450;-65
2022/09/24 10:21:33;;;;;;;17.52;14.73;;;17.80;1.00;;;;;;5093283;28;20052;-65
2022/09/24 10:24:01;;;;;;;18.35;16.50;;;17.80;22.10;;;;;;5093051;28;20031;-65
2022/09/24 10:26:39;;;;;;;17.30;15.60;;;17.80;40.00;;;;;;5094862;28;20089;-65
2022/09/24 10:31:54;;;;;;;22.02;17.10;;;17.90;1.00;;;;;;5095153;28;20043;-66
2022/09/24 10:34:27;;;;;;;19.45;17.10;;;18.00;1.00;;;;;;5093686;28;20394;-66
2022/09/24 10:37:02;;;;;;;18.77;16.92;;;18.10;1.00;;;;;;5094871;28;20024;-65
2022/09/24 10:39:29;;;;;;;19.02;16.30;;;18.00;1.00;;;;;;5093106;28;20081;-65
2022/09/24 10:41:56;;;;;;;19.38;17.30;;;18.10;1.00;;;;;;5086081;28;20060;-65
2022/09/24 10:44:23;;;;;;;19.63;17.63;;;18.20;1.00;;;;;;5079932;28;20444;-65
2022/09/24 10:47:09;;;;;;;18.50;16.63;;;18.20;1.00;;;;;;5094459;28;20082;-65
2022/09/24 10:49:44;;;;;;;18.23;16.35;;;18.30;1.00;;;;;;5088926;28;20032;-65
2022/09/24 10:52:24;;;;;;;22.42;18.25;;;18.30;1.00;;;;;;5093178;28;20036;-65
2022/09/24 10:55:00;;;;;;;19.42;17.35;;;18.30;1.00;;;;;;5093081;28;20477;-65
2022/09/24 10:57:56;;;;;;;22.27;18.40;;;18.30;1.00;;;;;;5094752;28;20446;-64
2022/09/24 11:00:25;;;;;;;18.77;16.85;;;18.40;1.00;;;;;;5093094;28;20474;-65
2022/09/24 11:03:12;;;;;;;18.35;15.38;;;18.50;1.00;;;;;;5092880;28;20059;-65
2022/09/24 11:05:49;;;;;;;18.60;16.70;;;18.50;1.00;;;;;;5080521;28;20039;-65
2022/09/24 11:08:37;;;;;;;19.05;16.30;;;18.50;1.00;;;;;;5078411;28;20021;-65
2022/09/24 11:11:26;;;;;;;19.38;15.95;;;18.70;1.00;;;;;;5092762;28;20028;-65
2022/09/24 11:14:16;;;;;;;19.88;17.60;;;18.70;1.00;;;;;;5091667;28;20037;-65
2022/09/24 11:16:53;;;;;;;19.48;16.58;;;18.80;1.00;;;;;;5092989;28;20115;-65
2022/09/24 11:19:29;;;;;;;20.52;17.60;;;18.80;1.00;;;;;;5092747;28;20473;-65
2022/09/24 11:22:11;;;;;;;18.92;16.25;;;19.00;1.00;;;;;;5081690;28;20041;-65
2022/09/24 11:25:14;;;;;;;19.92;16.48;;;18.80;1.00;;;;;;5079285;28;20028;-66
2022/09/24 11:27:40;;;;;;;19.92;16.90;;;18.70;1.00;;;;;;5077897;28;20115;-65
2022/09/24 11:30:08;;;;;;;20.02;17.85;;;18.60;1.00;;;;;;5086884;28;20170;-67
2022/09/24 11:32:48;;;;;;;21.08;18.00;;;18.60;1.00;;;;;;5089214;28;20024;-66
2022/09/24 11:35:59;;;;;;;19.25;17.30;;;18.60;1.00;;;;;;5091399;28;20024;-66
2022/09/24 11:39:12;;;;;;;20.13;18.00;;;18.60;1.00;;;;;;5081342;28;20375;-66
2022/09/24 11:41:58;;;;;;;19.45;16.92;;;18.50;1.00;;;;;;5070549;28;20025;-66
2022/09/24 11:45:17;;;;;;;19.40;17.40;;;18.50;1.00;;;;;;5070169;28;20115;-66
2022/09/24 11:48:07;;;;;;;19.38;17.33;;;18.60;1.00;;;;;;5035728;28;20084;-66
2022/09/24 11:51:00;;;;;;;19.52;17.20;;;18.70;1.00;;;;;;5081685;28;20084;-66
2022/09/24 11:53:29;;;;;;;19.85;17.88;;;18.70;1.00;;;;;;5078831;28;20032;-66
2022/09/24 11:56:02;;;;;;;20.92;17.50;;;18.60;1.00;;;;;;5091055;28;20103;-66
2022/09/24 11:58:42;;;;;;;19.63;16.67;;;18.80;1.00;;;;;;5087850;28;20423;-66
2022/09/24 12:01:24;;;;;;;17.65;15.55;;;18.60;1.00;;;;;;5073232;28;20078;-66
2022/09/24 12:04:07;;;;;;;18.60;16.65;;;18.50;1.00;;;;;;5074700;28;20031;-66
2022/09/24 12:06:42;;;;;;;16.83;15.13;;;18.50;1.00;;;;;;5091008;28;20035;-66
2022/09/24 12:09:20;;;;;;;17.00;15.02;;;18.50;1.00;;;;;;5092463;28;20020;-66
2022/09/24 12:12:07;;;;;;;16.08;14.38;;;18.50;1.00;;;;;;5091950;28;20089;-66
2022/09/24 12:15:13;;;;;;;16.73;15.02;;;18.60;1.00;;;;;;5093043;28;20028;-66
2022/09/24 12:17:51;;;;;;;17.63;15.35;;;18.60;1.00;;;;;;5080851;28;20033;-66
2022/09/24 12:20:19;;;;;;;16.67;14.98;;;18.60;1.00;;;;;;5086630;28;20059;-66
2022/09/24 12:22:48;;;;;;;18.38;16.02;;;18.50;1.00;;;;;;5083137;28;20508;-66
2022/09/24 12:25:14;;;;;;;17.45;15.20;;;18.50;1.00;;;;;;5076790;28;20042;-66
2022/09/24 12:27:41;;;;;;;17.02;15.05;;;18.50;1.00;;;;;;5077112;28;20473;-66
2022/09/24 12:33:40;;;;;;;17.90;14.50;;;18.50;1.00;;;;;;5069968;28;20158;-66
2022/09/24 12:36:49;;;;;;;17.48;15.68;;;18.60;1.00;;;;;;5085314;28;20072;-66
2022/09/24 12:39:19;;;;;;;17.55;15.48;;;18.60;1.00;;;;;;5092218;28;20020;-66
2022/09/24 12:41:50;;;;;;;18.73;16.75;;;18.70;1.00;;;;;;5088413;28;20024;-66
2022/09/24 12:44:22;;;;;;;18.23;16.10;;;18.70;1.00;;;;;;5087550;28;20470;-67
2022/09/24 12:46:54;;;;;;;20.83;16.27;;;18.80;1.00;;;;;;5090856;28;20107;-67
2022/09/24 12:49:25;;;;;;;17.95;16.05;;;18.60;1.00;;;;;;5092069;28;20062;-67
2022/09/24 12:51:53;;;;;;;18.35;15.43;;;18.70;1.00;;;;;;5086675;28;20123;-67
2022/09/24 12:54:36;;;;;;;17.10;15.40;;;18.80;1.00;;;;;;5092277;28;20020;-67
2022/09/24 12:57:14;;;;;;;17.00;15.30;;;18.70;1.00;;;;;;5086825;28;20016;-67
2022/09/24 12:59:50;;;;;;;17.15;15.27;;;18.80;1.00;;;;;;5092196;28;20094;-68
2022/09/24 13:02:23;;;;;;;17.23;15.45;;;18.70;1.00;;;;;;5083077;28;20020;-66
2022/09/24 13:05:21;;;;;;;15.05;12.90;;;18.60;1.00;;;;;;5093208;28;20086;-68
2022/09/24 13:08:01;;;;;;;15.43;13.38;;;18.20;1.00;;;;;;5086003;28;20040;-67
2022/09/24 13:10:36;;;;;;;20.95;14.88;;;18.20;1.00;;;;;;5090226;28;20052;-66
2022/09/24 13:13:14;;;;;;;15.82;14.02;;;18.20;1.00;;;;;;5091845;28;20034;-66
2022/09/24 13:15:41;;;;;;;17.40;13.43;;;18.20;1.00;;;;;;5084688;28;20039;-67
2022/09/24 13:18:09;;;;;;;17.02;15.05;;;18.20;1.00;;;;;;5087920;28;20024;-55
2022/09/24 13:20:37;;;;;;;16.13;14.05;;;18.20;1.00;;;;;;5090544;28;20043;-62
2022/09/24 13:23:19;;;;;;;15.60;13.48;;;18.10;1.00;;;;;;5078046;28;20032;-62
2022/09/24 13:26:19;;;;;;;15.82;14.07;;;18.20;1.00;;;;;;5088246;28;20327;-53
2022/09/24 13:28:50;;;;;;;15.65;14.15;;;18.40;1.00;;;;;;5075213;28;20036;-60
2022/09/24 13:31:21;;;;;;;16.40;14.73;;;18.60;1.00;;;;;;5090478;28;20119;-58
2022/09/24 13:34:08;;;;;;;19.13;13.95;;;18.50;1.00;;;;;;5091469;28;20028;-53
2022/09/24 13:36:39;;;;;;;14.40;13.00;;;18.30;1.00;;;;;;5090161;28;20032;-54